createdAt,value
2022-11-25T00:01:12.039Z,73.97
2022-11-25T00:03:40.427Z,73.73
2022-11-25T00:06:13.941Z,75.20
2022-11-25T00:08:42.327Z,76.43
2022-11-25T00:11:11.518Z,72.37
2022-11-25T00:13:40.507Z,74.70
2022-11-25T00:16:12.527Z,71.07
2022-11-25T00:18:40.991Z,71.33
2022-11-25T00:21:10.804Z,70.67
2022-11-25T00:23:39.418Z,69.53
2022-11-25T00:26:09.350Z,70.20
2022-11-25T00:28:37.937Z,67.80
2022-11-25T00:31:07.678Z,66.47
2022-11-25T00:33:37.280Z,67.23
2022-11-25T00:36:06.989Z,65.47
2022-11-25T00:38:35.203Z,64.80
2022-11-25T00:41:20.365Z,66.43
2022-11-25T00:44:05.951Z,62.33
2022-11-25T00:46:33.909Z,64.83
2022-11-25T00:49:03.245Z,60.33
2022-11-25T00:51:31.274Z,63.23
2022-11-25T00:53:59.396Z,64.10
2022-11-25T00:56:27.744Z,64.07
2022-11-25T00:58:55.720Z,62.87
2022-11-25T01:01:23.747Z,65.07
2022-11-25T01:03:52.450Z,61.97
2022-11-25T01:06:22.191Z,66.13
2022-11-25T01:08:50.624Z,64.70
2022-11-25T01:11:20.230Z,64.10
2022-11-25T01:13:48.814Z,66.27
2022-11-25T01:16:19.619Z,67.63
2022-11-25T01:18:47.944Z,69.57
2022-11-25T01:21:17.669Z,67.63
2022-11-25T01:23:48.518Z,68.83
2022-11-25T01:26:18.706Z,67.77
2022-11-25T01:28:47.038Z,67.63
2022-11-25T01:31:17.219Z,69.33
2022-11-25T01:33:45.902Z,67.40
2022-11-25T01:36:16.198Z,68.07
2022-11-25T01:38:46.406Z,65.90
2022-11-25T01:41:15.635Z,67.67
2022-11-25T01:43:43.774Z,67.37
2022-11-25T01:46:21.951Z,66.80
2022-11-25T01:48:54.387Z,67.20
2022-11-25T01:51:27.571Z,67.27
2022-11-25T01:53:59.939Z,62.57
2022-11-25T01:56:32.012Z,62.67
2022-11-25T01:59:00.420Z,60.77
2022-11-25T02:01:28.467Z,60.40
2022-11-25T02:03:58.336Z,59.97
2022-11-25T02:06:29.093Z,59.17
2022-11-25T02:09:05.662Z,58.73
2022-11-25T02:11:35.950Z,59.10
2022-11-25T02:14:04.766Z,59.57
2022-11-25T02:16:32.799Z,61.93
2022-11-25T02:19:00.826Z,62.73
2022-11-25T02:21:37.738Z,61.20
2022-11-25T02:24:16.436Z,64.50
2022-11-25T02:26:46.073Z,65.63
2022-11-25T02:29:14.260Z,66.60
2022-11-25T02:31:42.308Z,64.63
2022-11-25T02:34:10.621Z,64.80
2022-11-25T02:36:38.945Z,63.17
2022-11-25T02:39:08.246Z,65.70
2022-11-25T02:41:39.427Z,68.53
2022-11-25T02:44:08.797Z,64.07
2022-11-25T02:46:37.087Z,65.07
2022-11-25T02:49:09.863Z,65.37
2022-11-25T02:51:39.954Z,65.10
2022-11-25T02:54:08.624Z,64.40
2022-11-25T02:56:38.043Z,62.53
2022-11-25T02:59:06.388Z,67.93
2022-11-25T03:01:36.650Z,66.13
2022-11-25T03:04:05.030Z,61.67
2022-11-25T03:06:33.098Z,64.47
2022-11-25T03:09:01.147Z,61.43
2022-11-25T03:11:43.235Z,61.33
2022-11-25T03:14:11.210Z,59.80
2022-11-25T03:16:40.731Z,58.13
2022-11-25T03:19:09.555Z,58.93
2022-11-25T03:21:37.540Z,59.40
2022-11-25T03:24:05.984Z,58.77
2022-11-25T03:26:34.452Z,58.53
2022-11-25T03:29:02.563Z,58.80
2022-11-25T03:31:30.667Z,58.37
2022-11-25T03:34:00.225Z,56.83
2022-11-25T03:36:28.190Z,58.97
2022-11-25T03:38:56.161Z,56.83
2022-11-25T03:41:24.165Z,59.60
2022-11-25T03:43:52.148Z,56.37
2022-11-25T03:46:20.159Z,59.00
2022-11-25T03:48:48.140Z,59.10
2022-11-25T03:51:17.633Z,56.87
2022-11-25T03:53:45.607Z,59.43
2022-11-25T03:56:13.615Z,58.53
2022-11-25T03:58:41.568Z,58.27
2022-11-25T04:01:09.668Z,57.67
2022-11-25T04:03:37.749Z,58.50
2022-11-25T04:06:05.863Z,57.63
2022-11-25T04:08:35.276Z,60.40
2022-11-25T04:11:03.335Z,59.83
2022-11-25T04:13:30.438Z,61.53
2022-11-25T04:15:59.030Z,58.90
2022-11-25T04:18:27.031Z,58.20
2022-11-25T04:20:55.003Z,57.50
2022-11-25T04:23:23.014Z,61.70
2022-11-25T04:25:52.399Z,58.57
2022-11-25T04:28:20.403Z,58.13
2022-11-25T04:30:48.408Z,60.03
2022-11-25T04:33:16.484Z,59.13
2022-11-25T04:35:44.420Z,58.13
2022-11-25T04:38:12.413Z,55.80
2022-11-25T04:40:40.418Z,59.93
2022-11-25T04:43:10.760Z,56.00
2022-11-25T04:46:06.298Z,58.90
2022-11-25T04:48:27.069Z,58.60
2022-11-25T04:50:55.031Z,57.23
2022-11-25T04:53:23.035Z,58.07
2022-11-25T04:55:51.063Z,57.93
2022-11-25T04:58:40.411Z,57.50
2022-11-25T05:01:07.439Z,56.20
2022-11-25T05:03:35.477Z,55.50
2022-11-25T05:06:07.283Z,56.80
2022-11-25T05:08:35.265Z,59.20
2022-11-25T05:11:03.292Z,57.10
2022-11-25T05:13:32.715Z,59.63
2022-11-25T05:16:01.074Z,59.03
2022-11-25T05:18:29.088Z,58.03
2022-11-25T05:20:57.071Z,59.00
2022-11-25T05:23:25.035Z,60.13
2022-11-25T05:25:53.027Z,58.20
2022-11-25T05:28:21.035Z,56.20
2022-11-25T05:30:50.436Z,58.27
2022-11-25T05:33:18.487Z,57.70
2022-11-25T05:35:46.434Z,56.77
2022-11-25T05:38:14.381Z,57.33
2022-11-25T05:40:42.361Z,59.17
2022-11-25T05:43:10.343Z,58.73
2022-11-25T05:45:40.007Z,57.87
2022-11-25T05:48:09.403Z,59.10
2022-11-25T05:50:38.924Z,62.00
2022-11-25T05:53:07.080Z,60.57
2022-11-25T05:55:35.121Z,62.00
2022-11-25T05:58:04.778Z,57.27
2022-11-25T06:00:32.973Z,58.10
2022-11-25T06:03:01.026Z,56.53
2022-11-25T06:05:30.559Z,54.53
2022-11-25T06:07:58.619Z,51.87
2022-11-25T06:10:26.590Z,52.53
2022-11-25T06:12:54.749Z,52.47
2022-11-25T06:15:22.696Z,52.03
2022-11-25T06:17:50.673Z,51.50
2022-11-25T06:20:18.855Z,52.53
2022-11-25T06:22:48.205Z,52.07
2022-11-25T06:25:16.176Z,49.87
2022-11-25T06:28:11.190Z,51.63
2022-11-25T06:30:32.418Z,52.13
2022-11-25T06:33:00.444Z,52.90
2022-11-25T06:35:28.431Z,53.93
2022-11-25T06:37:59.435Z,52.53
2022-11-25T06:40:27.448Z,52.07
2022-11-25T06:42:55.458Z,51.73
2022-11-25T06:45:23.411Z,52.30
2022-11-25T06:47:51.649Z,50.67
2022-11-25T06:50:19.770Z,49.33
2022-11-25T06:52:47.754Z,48.50
2022-11-25T06:55:17.395Z,50.27
2022-11-25T06:57:45.358Z,50.47
2022-11-25T07:00:14.253Z,50.23
2022-11-25T07:02:48.067Z,52.23
2022-11-25T07:05:16.852Z,50.13
2022-11-25T07:07:44.922Z,52.10
2022-11-25T07:10:13.129Z,51.07
2022-11-25T07:12:42.436Z,49.37
2022-11-25T07:15:11.194Z,49.50
2022-11-25T07:17:39.203Z,46.20
2022-11-25T07:20:08.681Z,47.63
2022-11-25T07:22:36.709Z,47.87
2022-11-25T07:25:04.805Z,46.70
2022-11-25T07:27:34.041Z,45.00
2022-11-25T07:30:54.563Z,46.53
2022-11-25T07:32:51.409Z,46.87
2022-11-25T07:35:19.382Z,47.67
2022-11-25T07:37:50.792Z,50.23
2022-11-25T07:40:19.318Z,50.40
2022-11-25T07:42:47.366Z,50.43
2022-11-25T07:45:16.919Z,50.50
2022-11-25T07:47:44.891Z,51.07
2022-11-25T07:50:13.051Z,51.77
2022-11-25T07:52:41.989Z,50.23
2022-11-25T07:55:10.586Z,54.93
2022-11-25T07:57:38.649Z,54.30
2022-11-25T08:00:08.128Z,52.03
2022-11-25T08:02:37.669Z,52.03
2022-11-25T08:05:18.040Z,50.23
2022-11-25T08:07:46.105Z,51.07
2022-11-25T08:10:14.152Z,52.03
2022-11-25T08:12:42.480Z,56.43
2022-11-25T08:15:11.085Z,57.30
2022-11-25T08:17:40.398Z,57.03
2022-11-25T08:20:09.727Z,60.30
2022-11-25T08:22:37.754Z,58.83
2022-11-25T08:25:06.305Z,55.40
2022-11-25T08:27:34.370Z,55.77
2022-11-25T08:30:02.343Z,55.63
2022-11-25T08:32:30.509Z,59.37
2022-11-25T08:35:00.442Z,56.00
2022-11-25T08:37:28.395Z,55.53
2022-11-25T08:39:57.802Z,56.23
2022-11-25T08:42:27.011Z,56.90
2022-11-25T08:44:55.530Z,50.57
2022-11-25T08:47:23.974Z,53.23
2022-11-25T08:49:53.061Z,50.70
2022-11-25T08:52:23.021Z,54.00
2022-11-25T08:54:51.322Z,50.87
2022-11-25T08:57:19.314Z,50.87
2022-11-25T08:59:47.538Z,48.47
2022-11-25T09:02:17.945Z,50.30
2022-11-25T09:04:46.926Z,52.43
2022-11-25T09:07:15.079Z,50.57
2022-11-25T09:09:44.571Z,56.70
2022-11-25T09:12:15.424Z,55.17
2022-11-25T09:14:43.565Z,52.33
2022-11-25T09:17:12.674Z,53.73
2022-11-25T09:19:41.292Z,55.37
2022-11-25T09:22:09.758Z,52.57
2022-11-25T09:24:37.816Z,48.80
2022-11-25T09:27:07.166Z,49.50
2022-11-25T09:29:35.507Z,45.10
2022-11-25T09:32:04.146Z,49.80
2022-11-25T09:34:32.093Z,45.07
2022-11-25T09:37:00.096Z,43.20
2022-11-25T09:39:31.022Z,45.37
2022-11-25T09:42:28.489Z,44.00
2022-11-25T09:45:25.432Z,43.70
2022-11-25T09:48:04.090Z,43.90
2022-11-25T09:50:47.916Z,43.13
2022-11-25T09:53:27.602Z,44.97
2022-11-25T09:56:01.629Z,41.03
2022-11-25T09:58:36.681Z,42.00
2022-11-25T10:01:08.106Z,39.13
2022-11-25T10:03:40.364Z,37.57
2022-11-25T10:06:14.945Z,40.53
2022-11-25T10:08:45.896Z,38.47
2022-11-25T10:11:24.357Z,34.70
2022-11-25T10:13:59.699Z,36.43
2022-11-25T10:16:35.574Z,33.83
2022-11-25T10:19:13.040Z,34.23
2022-11-25T10:21:41.241Z,34.03
2022-11-25T10:24:15.568Z,33.23
2022-11-25T10:26:44.943Z,36.67
2022-11-25T10:29:27.004Z,34.80
2022-11-25T10:32:02.440Z,34.47
2022-11-25T10:34:38.081Z,33.90
2022-11-25T10:37:13.431Z,32.37
2022-11-25T10:39:41.602Z,31.87
2022-11-25T10:42:19.496Z,32.77
2022-11-25T10:44:48.828Z,32.30
2022-11-25T10:47:35.396Z,32.77
2022-11-25T10:50:18.468Z,33.97
2022-11-25T10:52:53.053Z,33.37
2022-11-25T10:55:24.240Z,33.97
2022-11-25T10:58:22.381Z,32.90
2022-11-25T11:01:04.759Z,33.47
2022-11-25T11:03:32.863Z,32.33
2022-11-25T11:06:01.206Z,31.03
2022-11-25T11:08:37.293Z,29.37
2022-11-25T11:11:17.673Z,28.23
2022-11-25T11:13:46.863Z,31.83
2022-11-25T11:16:30.485Z,32.20
2022-11-25T11:18:58.805Z,33.07
2022-11-25T11:21:33.192Z,33.27
2022-11-25T11:24:02.277Z,31.47
2022-11-25T11:26:32.047Z,31.77
2022-11-25T11:29:03.166Z,30.57
2022-11-25T11:31:39.231Z,29.33
2022-11-25T11:34:34.815Z,33.37
2022-11-25T11:37:23.859Z,33.13
2022-11-25T11:40:03.052Z,34.47
2022-11-25T11:42:40.476Z,34.77
2022-11-25T11:45:34.714Z,34.27
2022-11-25T11:48:12.890Z,36.43
2022-11-25T11:50:46.375Z,35.27
2022-11-25T11:53:23.006Z,32.60
2022-11-25T11:56:32.944Z,32.53
2022-11-25T11:59:02.033Z,29.67
2022-11-25T12:01:44.213Z,30.23
2022-11-25T12:04:21.935Z,30.10
2022-11-25T12:07:01.510Z,32.13
2022-11-25T12:09:32.475Z,32.57
2022-11-25T12:12:05.428Z,32.60
2022-11-25T12:14:41.941Z,30.70
2022-11-25T12:17:17.444Z,33.17
2022-11-25T12:19:54.832Z,33.77
2022-11-25T12:22:26.593Z,31.90
2022-11-25T12:25:01.589Z,31.37
2022-11-25T12:27:35.723Z,31.60
2022-11-25T12:30:07.446Z,31.87
2022-11-25T12:33:04.306Z,32.70
2022-11-25T12:35:49.598Z,33.67
2022-11-25T12:38:31.581Z,29.63
2022-11-25T12:41:05.886Z,31.47
2022-11-25T12:43:43.943Z,30.93
2022-11-25T12:46:27.845Z,32.77
2022-11-25T12:48:57.467Z,30.80
2022-11-25T12:51:41.179Z,32.73
2022-11-25T12:54:21.716Z,31.67
2022-11-25T12:57:33.854Z,32.23
2022-11-25T13:03:26.646Z,32.87
2022-11-25T13:06:27.472Z,34.53
2022-11-25T13:09:01.410Z,34.63
2022-11-25T13:12:04.609Z,34.23
2022-11-25T13:14:55.584Z,32.90
2022-11-25T13:17:25.631Z,33.50
2022-11-25T13:20:52.100Z,36.10
2022-11-25T13:23:31.644Z,35.33
2022-11-25T13:26:50.444Z,33.60
2022-11-25T13:30:03.796Z,33.30
2022-11-25T13:32:40.657Z,33.17
2022-11-25T13:35:36.567Z,29.23
2022-11-25T13:38:39.105Z,30.90
2022-11-25T13:41:23.410Z,34.33
2022-11-25T13:44:02.286Z,31.60
2022-11-25T13:46:40.719Z,30.30
2022-11-25T13:49:26.537Z,33.37
2022-11-25T13:51:57.743Z,31.90
2022-11-25T13:54:33.039Z,33.17
2022-11-25T13:57:20.753Z,34.07
2022-11-25T14:00:02.351Z,32.47
2022-11-25T14:02:42.110Z,32.93
2022-11-25T14:05:37.130Z,34.00
2022-11-25T14:08:22.823Z,32.30
2022-11-25T14:11:01.248Z,33.13
2022-11-25T14:14:04.007Z,32.67
2022-11-25T14:16:52.387Z,34.83
2022-11-25T14:19:57.713Z,34.20
2022-11-25T14:23:03.709Z,33.27
2022-11-25T14:25:43.184Z,34.13
2022-11-25T14:28:22.932Z,31.93
2022-11-25T14:30:54.554Z,32.80
2022-11-25T14:33:27.584Z,33.67
2022-11-25T14:36:01.780Z,34.33
2022-11-25T14:38:38.457Z,31.43
2022-11-25T14:41:11.724Z,30.63
2022-11-25T14:43:43.353Z,29.20
2022-11-25T14:46:15.466Z,28.40
2022-11-25T14:48:45.444Z,28.77
2022-11-25T14:51:14.858Z,30.03
2022-11-25T14:53:48.237Z,28.00
2022-11-25T14:56:22.460Z,29.00
2022-11-25T14:58:52.219Z,28.50
2022-11-25T15:01:22.054Z,29.90
2022-11-25T15:03:53.450Z,31.57
2022-11-25T15:06:22.338Z,31.03
2022-11-25T15:08:57.333Z,30.73
2022-11-25T15:11:29.805Z,29.27
2022-11-25T15:14:01.805Z,31.90
2022-11-25T15:16:35.904Z,30.93
2022-11-25T15:19:07.758Z,30.27
2022-11-25T15:22:00.083Z,32.60
2022-11-25T15:24:28.826Z,31.03
2022-11-25T15:26:59.759Z,31.63
2022-11-25T15:29:31.069Z,32.43
2022-11-25T15:32:01.036Z,32.03
2022-11-25T15:34:31.239Z,31.90
2022-11-25T15:37:02.604Z,30.97
2022-11-25T15:39:30.769Z,32.67
2022-11-25T15:42:07.406Z,33.87
2022-11-25T15:44:39.858Z,34.63
2022-11-25T15:47:16.727Z,35.90
2022-11-25T15:49:50.034Z,36.07
2022-11-25T15:52:20.606Z,35.93
2022-11-25T15:54:51.178Z,36.30
2022-11-25T15:57:22.997Z,39.50
2022-11-25T16:00:02.952Z,41.27
2022-11-25T16:02:40.758Z,42.50
2022-11-25T16:05:29.110Z,43.03
2022-11-25T16:08:03.266Z,42.77
2022-11-25T16:10:32.913Z,40.77
2022-11-25T16:13:36.624Z,40.93
2022-11-25T16:16:15.217Z,40.03
2022-11-25T16:18:50.452Z,37.93
2022-11-25T16:21:23.272Z,38.50
2022-11-25T16:23:55.852Z,40.40
2022-11-25T16:26:27.309Z,42.37
2022-11-25T16:28:57.915Z,43.63
2022-11-25T16:31:26.747Z,42.57
2022-11-25T16:33:56.061Z,40.47
2022-11-25T16:36:25.406Z,39.87
2022-11-25T16:38:54.868Z,36.90
2022-11-25T16:41:25.379Z,38.43
2022-11-25T16:43:57.083Z,39.33
2022-11-25T16:46:27.643Z,39.37
2022-11-25T16:48:55.636Z,40.90
2022-11-25T16:51:25.910Z,44.00
2022-11-25T16:53:53.954Z,41.33
2022-11-25T16:56:27.777Z,41.30
2022-11-25T16:58:56.312Z,38.37
2022-11-25T17:01:26.735Z,36.83
2022-11-25T17:03:54.961Z,41.17
2022-11-25T17:06:24.918Z,43.27
2022-11-25T17:08:54.326Z,39.87
2022-11-25T17:11:28.017Z,42.97
2022-11-25T17:13:57.266Z,40.23
2022-11-25T17:16:28.388Z,40.03
2022-11-25T17:18:58.808Z,38.83
2022-11-25T17:21:28.803Z,38.87
2022-11-25T17:24:02.728Z,36.73
2022-11-25T17:26:38.014Z,36.13
2022-11-25T17:29:09.189Z,34.67
2022-11-25T17:31:39.195Z,35.80
2022-11-25T17:34:07.483Z,35.30
2022-11-25T17:36:35.495Z,35.33
2022-11-25T17:39:04.871Z,34.20
2022-11-25T17:41:39.489Z,31.30
2022-11-25T17:44:13.022Z,31.40
2022-11-25T17:46:41.004Z,30.37
2022-11-25T17:49:15.386Z,30.67
2022-11-25T17:51:43.641Z,30.00
2022-11-25T17:54:13.585Z,31.30
2022-11-25T17:56:46.481Z,30.43
2022-11-25T17:59:22.074Z,32.70
2022-11-25T18:01:50.183Z,33.60
2022-11-25T18:04:22.960Z,34.47
2022-11-25T18:06:51.100Z,35.77
2022-11-25T18:09:20.983Z,35.70
2022-11-25T18:11:52.017Z,35.10
2022-11-25T18:14:26.112Z,32.50
2022-11-25T18:16:54.423Z,31.40
2022-11-25T18:19:22.850Z,32.57
2022-11-25T18:21:50.812Z,33.23
2022-11-25T18:24:20.178Z,33.73
2022-11-25T18:26:51.014Z,32.23
2022-11-25T18:29:24.505Z,32.47
2022-11-25T18:31:53.564Z,30.80
2022-11-25T18:34:21.544Z,30.87
2022-11-25T18:36:50.935Z,31.83
2022-11-25T18:39:20.594Z,30.77
2022-11-25T18:41:53.898Z,32.13
2022-11-25T18:44:37.298Z,33.60
2022-11-25T18:47:05.807Z,32.03
2022-11-25T18:49:33.813Z,33.23
2022-11-25T18:52:01.739Z,32.90
2022-11-25T18:54:31.079Z,33.83
2022-11-25T18:56:59.136Z,34.37
2022-11-25T18:59:31.935Z,35.43
2022-11-25T19:02:00.121Z,34.00
2022-11-25T19:04:28.199Z,33.47
2022-11-25T19:06:56.181Z,34.27
2022-11-25T19:09:24.142Z,33.73
2022-11-25T19:11:56.321Z,36.43
2022-11-25T19:14:30.273Z,36.17
2022-11-25T19:17:02.291Z,36.60
2022-11-25T19:19:30.597Z,38.27
2022-11-25T19:22:01.313Z,38.63
2022-11-25T19:24:29.440Z,40.47
2022-11-25T19:26:58.850Z,38.97
2022-11-25T19:29:32.044Z,38.73
2022-11-25T19:32:01.979Z,39.97
2022-11-25T19:34:34.935Z,39.87
2022-11-25T19:37:03.369Z,39.73
2022-11-25T19:39:36.130Z,43.50
2022-11-25T19:42:05.486Z,43.30
2022-11-25T19:44:33.466Z,43.27
2022-11-25T19:47:15.244Z,44.00
2022-11-25T19:49:44.131Z,41.63
2022-11-25T19:52:17.095Z,42.60
2022-11-25T19:54:45.358Z,42.60
2022-11-25T19:57:17.965Z,42.83
2022-11-25T19:59:46.162Z,40.80
2022-11-25T20:02:16.313Z,42.57
2022-11-25T20:04:46.541Z,42.60
2022-11-25T20:07:17.196Z,42.67
2022-11-25T20:09:45.340Z,42.50
2022-11-25T20:12:21.942Z,41.77
2022-11-25T20:14:51.298Z,38.77
2022-11-25T20:17:25.587Z,38.47
2022-11-25T20:19:54.896Z,40.37
2022-11-25T20:22:27.809Z,39.57
2022-11-25T20:24:56.583Z,41.50
2022-11-25T20:27:28.385Z,41.77
2022-11-25T20:29:56.357Z,39.70
2022-11-25T20:32:28.964Z,40.23
2022-11-25T20:34:57.400Z,38.67
2022-11-25T20:37:26.230Z,40.23
2022-11-25T20:39:55.592Z,33.93
2022-11-25T20:42:24.227Z,34.60
2022-11-25T20:44:57.463Z,29.20
2022-11-25T20:47:27.412Z,26.90
2022-11-25T20:49:55.411Z,35.37
2022-11-25T20:52:30.888Z,33.97
2022-11-25T20:54:59.421Z,33.03
2022-11-25T20:57:27.453Z,36.40
2022-11-25T20:59:56.787Z,33.13
2022-11-25T21:02:24.777Z,27.87
2022-11-25T21:04:52.785Z,26.63
2022-11-25T21:07:20.796Z,27.07
2022-11-25T21:09:48.818Z,26.63
2022-11-25T21:12:19.450Z,26.37
2022-11-25T21:14:48.294Z,27.30
2022-11-25T21:17:17.660Z,24.90
2022-11-25T21:19:45.744Z,26.20
2022-11-25T21:22:15.475Z,26.20
2022-11-25T21:24:44.656Z,27.77
2022-11-25T21:27:15.829Z,27.67
2022-11-25T21:29:45.199Z,29.53
2022-11-25T21:32:22.157Z,28.20
2022-11-25T21:34:50.746Z,31.37
2022-11-25T21:37:23.183Z,35.63
2022-11-25T21:39:51.639Z,34.87
2022-11-25T21:42:22.383Z,36.23
2022-11-25T21:44:52.073Z,35.60
2022-11-25T21:47:23.522Z,35.57
2022-11-25T21:49:51.911Z,34.63
2022-11-25T21:52:20.386Z,37.77
2022-11-25T21:54:48.456Z,40.47
2022-11-25T21:57:17.752Z,44.57
2022-11-25T21:59:47.304Z,51.27
2022-11-25T22:02:22.162Z,50.13
2022-11-25T22:04:51.010Z,50.53
2022-11-25T22:07:19.529Z,55.00
2022-11-25T22:09:47.642Z,46.97
2022-11-25T22:12:27.529Z,36.87
2022-11-25T22:14:56.129Z,35.17
2022-11-25T22:17:26.021Z,35.50
2022-11-25T22:19:54.247Z,35.03
2022-11-25T22:22:22.346Z,32.23
2022-11-25T22:24:50.370Z,33.87
2022-11-25T22:27:22.400Z,32.27
2022-11-25T22:29:50.813Z,33.97
2022-11-25T22:32:19.965Z,33.73
2022-11-25T22:34:49.389Z,33.47
2022-11-25T22:37:19.494Z,33.67
2022-11-25T22:39:47.564Z,33.80
2022-11-25T22:42:21.143Z,33.83
2022-11-25T22:44:50.662Z,33.03
2022-11-25T22:47:24.951Z,35.20
2022-11-25T22:49:54.545Z,35.77
2022-11-25T22:52:26.291Z,35.87
2022-11-25T22:54:54.511Z,35.63
2022-11-25T22:57:22.559Z,38.47
2022-11-25T22:59:50.552Z,40.00
2022-11-25T23:02:21.687Z,40.20
2022-11-25T23:04:52.397Z,39.10
2022-11-25T23:07:22.264Z,40.33
2022-11-25T23:09:51.267Z,40.97
2022-11-25T23:12:19.595Z,42.40
2022-11-25T23:14:47.630Z,40.30
2022-11-25T23:17:20.384Z,39.93
2022-11-25T23:19:48.866Z,38.53
2022-11-25T23:22:17.212Z,37.67
2022-11-25T23:24:48.322Z,37.23
2022-11-25T23:27:16.888Z,36.03
2022-11-25T23:29:45.026Z,36.33
2022-11-25T23:32:19.575Z,36.40
2022-11-25T23:34:50.355Z,35.83
2022-11-25T23:37:18.529Z,33.97
2022-11-25T23:39:53.355Z,33.53
2022-11-25T23:42:21.978Z,33.50
2022-11-25T23:44:50.124Z,34.90
2022-11-25T23:47:20.450Z,36.53
2022-11-25T23:49:51.223Z,35.67
2022-11-25T23:52:22.850Z,35.07
2022-11-25T23:54:53.343Z,34.27
2022-11-25T23:57:23.673Z,35.87
2022-11-25T23:59:52.379Z,34.97
